Time;durP1;ratioP1;P1;durP2;ratioP2;P2;SDS_P1;SDS_P2;PMS_P1;PMS_P2;Temp;Humidity;BMP_temperature;BMP_pressure;BME280_temperature;BME280_humidity;BME280_pressure;Samples;Min_cycle;Max_cycle;Signal;HPM_P1;HPM_P2
2021/01/24 00:02:06;;;;;;;15.27;10.30;;;3.30;99.90;;;;;;4978273;29;20455;-51
2021/01/24 00:04:33;;;;;;;18.90;10.50;;;3.30;99.90;;;;;;4977961;29;20478;-47
2021/01/24 00:06:59;;;;;;;16.87;10.63;;;3.30;99.90;;;;;;4977833;29;20451;-48
2021/01/24 00:09:26;;;;;;;20.13;10.40;;;3.30;99.90;;;;;;4977842;29;20460;-47
2021/01/24 00:11:52;;;;;;;19.23;11.73;;;3.30;99.90;;;;;;4977910;29;20476;-47
2021/01/24 00:14:19;;;;;;;23.10;11.70;;;3.40;99.90;;;;;;4977582;29;20463;-45
2021/01/24 00:16:45;;;;;;;20.87;12.30;;;3.30;99.90;;;;;;4977003;29;20459;-46
2021/01/24 00:19:11;;;;;;;24.93;12.63;;;3.30;99.90;;;;;;4977252;29;20524;-48
2021/01/24 00:21:39;;;;;;;15.77;10.97;;;3.30;99.90;;;;;;4978104;29;20447;-48
2021/01/24 00:24:06;;;;;;;18.83;11.30;;;3.30;99.90;;;;;;4977082;29;20436;-49
2021/01/24 00:26:33;;;;;;;22.80;11.53;;;3.30;99.90;;;;;;4976925;29;20467;-49
2021/01/24 00:28:59;;;;;;;22.53;11.97;;;3.30;99.90;;;;;;4976618;29;20454;-50
2021/01/24 00:31:26;;;;;;;19.90;11.27;;;3.40;99.90;;;;;;4977858;29;20463;-48
2021/01/24 00:33:52;;;;;;;17.33;11.37;;;3.40;99.90;;;;;;4977457;29;20457;-51
2021/01/24 00:36:20;;;;;;;20.57;12.77;;;3.40;99.90;;;;;;4977130;29;20478;-52
2021/01/24 00:38:48;;;;;;;17.67;10.13;;;3.50;99.90;;;;;;4977655;29;20443;-48
2021/01/24 00:41:14;;;;;;;16.27;9.40;;;3.50;99.90;;;;;;4976951;29;20507;-51
2021/01/24 00:43:41;;;;;;;16.23;9.07;;;3.50;99.90;;;;;;4977426;29;20475;-49
2021/01/24 00:46:07;;;;;;;19.10;11.33;;;3.50;99.90;;;;;;4977026;29;20476;-53
2021/01/24 00:48:35;;;;;;;16.30;10.47;;;3.60;99.90;;;;;;4978187;28;20475;-50
2021/01/24 00:51:01;;;;;;;24.10;13.53;;;3.60;99.90;;;;;;4981189;29;20451;-51
2021/01/24 00:53:28;;;;;;;15.87;9.30;;;3.70;99.90;;;;;;4980842;29;20484;-51
2021/01/24 00:55:55;;;;;;;16.33;10.23;;;3.60;99.90;;;;;;4980527;29;20450;-49
2021/01/24 00:58:22;;;;;;;27.83;12.67;;;3.60;99.90;;;;;;4981121;29;20427;-53
2021/01/24 01:00:48;;;;;;;13.57;8.97;;;3.60;99.90;;;;;;4980712;29;20507;-52
2021/01/24 01:03:15;;;;;;;19.53;10.83;;;3.60;99.90;;;;;;4980969;29;20431;-49
2021/01/24 01:05:41;;;;;;;15.87;10.60;;;3.60;99.90;;;;;;4980350;29;20444;-50
2021/01/24 01:08:08;;;;;;;18.90;11.07;;;3.60;99.90;;;;;;4980748;29;20510;-50
2021/01/24 01:10:35;;;;;;;20.30;11.00;;;3.60;99.90;;;;;;4980664;29;20424;-50
2021/01/24 01:13:02;;;;;;;22.47;11.07;;;3.60;99.90;;;;;;4980921;29;20503;-51
2021/01/24 01:15:29;;;;;;;18.20;11.03;;;3.60;99.90;;;;;;4980913;29;20463;-49
2021/01/24 01:17:55;;;;;;;19.80;9.43;;;3.60;99.90;;;;;;4981140;29;20435;-50
2021/01/24 01:20:22;;;;;;;18.10;10.50;;;3.50;99.90;;;;;;4981418;28;20471;-45
2021/01/24 01:22:48;;;;;;;21.97;11.30;;;3.50;99.90;;;;;;4981235;29;20483;-48
2021/01/24 01:25:15;;;;;;;23.13;12.47;;;3.50;99.90;;;;;;4981216;29;20448;-48
2021/01/24 01:27:41;;;;;;;28.37;11.23;;;3.50;99.90;;;;;;4979898;29;20427;-51
2021/01/24 01:30:10;;;;;;;20.20;11.50;;;3.50;99.90;;;;;;4980071;29;20511;-53
2021/01/24 01:32:36;;;;;;;18.70;10.67;;;3.50;99.90;;;;;;4980266;29;20506;-52
2021/01/24 01:35:05;;;;;;;16.43;9.00;;;3.50;99.90;;;;;;4980137;29;20503;-48
2021/01/24 01:37:31;;;;;;;20.23;12.27;;;3.50;99.90;;;;;;4980183;29;20452;-50
2021/01/24 01:39:58;;;;;;;17.60;9.60;;;3.40;99.90;;;;;;4980187;29;20479;-50
2021/01/24 01:42:24;;;;;;;18.07;8.47;;;3.40;99.90;;;;;;4980840;29;20444;-49
2021/01/24 01:44:54;;;;;;;18.47;11.07;;;3.40;99.90;;;;;;4979272;28;20468;-49
2021/01/24 01:47:24;;;;;;;19.90;11.07;;;3.40;99.90;;;;;;4979349;29;20436;-51
2021/01/24 01:49:53;;;;;;;14.10;9.23;;;3.40;99.90;;;;;;4979453;29;20428;-50
2021/01/24 01:52:22;;;;;;;22.60;11.23;;;3.40;99.90;;;;;;4998841;28;20462;-50
2021/01/24 01:54:49;;;;;;;21.60;10.13;;;3.40;99.90;;;;;;4998111;28;20477;-52
2021/01/24 01:57:16;;;;;;;18.73;10.10;;;3.40;99.90;;;;;;4997945;28;20446;-50
2021/01/24 01:59:42;;;;;;;17.53;10.03;;;3.50;99.90;;;;;;4997448;28;20482;-52
2021/01/24 02:02:21;;;;;;;15.70;9.53;;;3.50;99.90;;;;;;4997688;28;20475;-51
2021/01/24 02:04:53;;;;;;;18.20;9.93;;;3.50;99.90;;;;;;4997994;28;20450;-52
2021/01/24 02:07:24;;;;;;;19.33;9.43;;;3.50;99.90;;;;;;4998047;28;20470;-51
2021/01/24 02:09:57;;;;;;;16.10;10.80;;;3.50;99.90;;;;;;4997773;28;20447;-51
2021/01/24 02:12:28;;;;;;;18.40;11.03;;;3.50;99.90;;;;;;4998554;28;20443;-52
2021/01/24 02:15:00;;;;;;;15.80;9.30;;;3.50;99.90;;;;;;4998377;28;20470;-50
2021/01/24 02:17:29;;;;;;;20.50;11.07;;;3.50;99.90;;;;;;4998333;28;20438;-48
2021/01/24 02:20:09;;;;;;;20.50;10.10;;;3.50;99.90;;;;;;4985680;28;20483;-48
2021/01/24 02:22:40;;;;;;;17.60;9.83;;;3.40;99.90;;;;;;4989336;28;20909;-53
2021/01/24 02:25:16;;;;;;;18.53;8.90;;;3.40;99.90;;;;;;4995133;28;20450;-50
2021/01/24 02:27:48;;;;;;;15.93;10.57;;;3.40;99.90;;;;;;4997771;28;20415;-51
2021/01/24 02:30:27;;;;;;;23.57;10.03;;;3.50;99.90;;;;;;4997872;28;20428;-49
2021/01/24 02:33:01;;;;;;;17.37;8.33;;;3.60;99.90;;;;;;4978099;29;20455;-46
2021/01/24 02:35:31;;;;;;;15.33;9.63;;;3.60;99.90;;;;;;4978608;29;20436;-51
2021/01/24 02:38:01;;;;;;;14.23;9.30;;;3.50;99.90;;;;;;4978549;29;20424;-50
2021/01/24 02:40:29;;;;;;;14.70;9.63;;;3.50;99.90;;;;;;4978857;29;20507;-47
2021/01/24 02:42:56;;;;;;;17.20;8.97;;;3.50;99.90;;;;;;4978936;29;20428;-50
2021/01/24 02:45:24;;;;;;;18.05;10.05;;;3.50;99.90;;;;;;4883334;29;2792114;-48
2021/01/24 02:48:26;;;;;;;14.13;9.10;;;3.50;99.90;;;;;;4979521;29;20223;-47
2021/01/24 02:50:52;;;;;;;12.83;8.10;;;3.50;99.90;;;;;;4979162;29;20428;-51
2021/01/24 02:53:20;;;;;;;16.00;8.67;;;3.50;99.90;;;;;;4979460;29;20428;-52
2021/01/24 02:55:47;;;;;;;16.83;8.63;;;3.50;99.90;;;;;;4978289;29;21074;-50
2021/01/24 02:58:14;;;;;;;14.73;8.70;;;3.60;99.90;;;;;;4978495;29;20766;-53
2021/01/24 03:00:42;;;;;;;16.93;9.57;;;3.50;99.90;;;;;;4978318;29;20498;-50
2021/01/24 03:03:08;;;;;;;15.43;10.03;;;3.50;99.90;;;;;;4978355;29;20455;-49
2021/01/24 03:05:35;;;;;;;18.07;10.27;;;3.50;99.90;;;;;;4977935;29;20424;-49
2021/01/24 03:08:02;;;;;;;18.10;9.13;;;3.60;99.90;;;;;;4978689;29;20491;-48
2021/01/24 03:10:28;;;;;;;15.13;10.00;;;3.60;99.90;;;;;;4978640;29;20456;-47
2021/01/24 03:13:01;;;;;;;15.00;8.67;;;3.50;99.90;;;;;;4977665;28;20460;-49
2021/01/24 03:15:29;;;;;;;16.63;10.33;;;3.50;99.90;;;;;;4978692;29;20466;-50
2021/01/24 03:17:57;;;;;;;17.87;9.97;;;3.60;99.90;;;;;;4978573;29;20949;-50
2021/01/24 03:20:27;;;;;;;19.53;9.23;;;3.50;99.90;;;;;;4978135;29;20510;-51
2021/01/24 03:22:55;;;;;;;19.87;10.00;;;3.50;99.90;;;;;;4978829;29;20756;-50
2021/01/24 03:25:23;;;;;;;15.50;9.47;;;3.50;99.90;;;;;;4978403;29;20451;-50
2021/01/24 03:27:49;;;;;;;18.80;10.47;;;3.50;99.90;;;;;;4978227;29;20459;-48
2021/01/24 03:30:17;;;;;;;18.47;9.40;;;3.50;99.90;;;;;;4978099;29;20444;-51
2021/01/24 03:32:43;;;;;;;17.50;9.87;;;3.50;99.90;;;;;;4977340;29;20444;-52
2021/01/24 03:35:12;;;;;;;13.80;7.93;;;3.50;99.90;;;;;;4978010;29;20489;-50
2021/01/24 03:37:39;;;;;;;15.97;8.93;;;3.50;99.90;;;;;;4978082;29;20447;-51
2021/01/24 03:40:06;;;;;;;20.00;11.00;;;3.50;99.90;;;;;;4978412;29;20527;-49
2021/01/24 03:42:33;;;;;;;13.23;8.03;;;3.50;99.90;;;;;;4977466;29;20471;-50
2021/01/24 03:44:59;;;;;;;16.93;9.00;;;3.50;99.90;;;;;;4976975;29;20509;-50
2021/01/24 03:47:25;;;;;;;14.60;8.67;;;3.50;99.90;;;;;;4977203;29;20476;-48
2021/01/24 03:49:52;;;;;;;19.60;9.73;;;3.60;99.90;;;;;;4977716;29;20472;-54
2021/01/24 03:52:19;;;;;;;16.83;8.67;;;3.60;99.90;;;;;;4977502;29;20500;-49
2021/01/24 03:54:45;;;;;;;15.47;9.10;;;3.50;99.90;;;;;;4977492;29;20448;-51
2021/01/24 03:57:12;;;;;;;18.27;9.97;;;3.50;99.90;;;;;;4977578;29;20468;-49
2021/01/24 03:59:38;;;;;;;16.87;8.83;;;3.60;99.90;;;;;;4977767;29;20444;-50
2021/01/24 04:02:05;;;;;;;18.50;8.70;;;3.50;99.90;;;;;;4977278;29;20439;-53
2021/01/24 04:04:31;;;;;;;19.63;9.40;;;3.50;99.90;;;;;;4977796;29;20467;-49
2021/01/24 04:06:58;;;;;;;18.23;8.97;;;3.50;99.90;;;;;;4977826;29;20467;-48
2021/01/24 04:09:25;;;;;;;16.80;8.40;;;3.50;99.90;;;;;;4977751;29;20435;-52
2021/01/24 04:11:51;;;;;;;16.47;8.63;;;3.50;99.90;;;;;;4977647;29;20444;-48
2021/01/24 04:14:18;;;;;;;15.97;8.73;;;3.50;99.90;;;;;;4977866;29;20472;-49
2021/01/24 04:16:44;;;;;;;15.40;8.63;;;3.50;99.90;;;;;;4978001;29;20459;-51
2021/01/24 04:19:54;;;;;;;15.00;8.03;;;3.50;99.90;;;;;;4978046;29;20516;-46
2021/01/24 04:22:21;;;;;;;13.40;8.50;;;3.60;99.90;;;;;;4978144;28;20427;-47
2021/01/24 04:24:48;;;;;;;15.70;8.90;;;3.60;99.90;;;;;;4977426;29;20475;-52
2021/01/24 04:27:14;;;;;;;19.90;10.40;;;3.70;99.90;;;;;;4976388;29;20423;-52
2021/01/24 04:29:41;;;;;;;15.87;8.00;;;3.70;99.90;;;;;;4976364;29;20452;-53
2021/01/24 04:32:07;;;;;;;17.93;7.97;;;3.70;99.90;;;;;;4976688;29;20483;-50
2021/01/24 04:34:33;;;;;;;15.27;9.10;;;3.70;99.90;;;;;;4976334;29;20447;-54
2021/01/24 04:37:00;;;;;;;18.20;8.57;;;3.80;99.90;;;;;;4976174;29;20458;-52
2021/01/24 04:39:26;;;;;;;15.17;8.83;;;3.80;99.90;;;;;;4976427;29;20455;-49
2021/01/24 04:41:54;;;;;;;20.83;9.33;;;3.70;99.90;;;;;;4976406;29;20494;-51
2021/01/24 04:44:23;;;;;;;12.10;7.30;;;3.70;99.90;;;;;;4976724;29;20491;-53
2021/01/24 04:46:50;;;;;;;17.60;8.53;;;3.70;99.90;;;;;;4977109;28;20534;-50
2021/01/24 04:49:17;;;;;;;16.00;8.40;;;3.70;99.90;;;;;;4976283;29;20468;-51
2021/01/24 04:51:44;;;;;;;14.40;8.07;;;3.70;99.90;;;;;;4976490;29;20439;-50
2021/01/24 04:54:15;;;;;;;13.53;7.70;;;3.70;99.90;;;;;;4976824;29;20447;-51
2021/01/24 04:56:42;;;;;;;19.23;9.43;;;3.70;99.90;;;;;;4976874;29;20443;-51
2021/01/24 04:59:09;;;;;;;13.27;7.93;;;3.70;99.90;;;;;;4977490;28;20439;-48
2021/01/24 05:01:38;;;;;;;16.70;9.20;;;3.70;99.90;;;;;;4976540;29;20479;-51
2021/01/24 05:04:04;;;;;;;14.23;7.73;;;3.70;99.90;;;;;;4976987;29;20432;-53
2021/01/24 05:06:31;;;;;;;13.23;8.23;;;3.60;99.90;;;;;;4977047;29;20460;-52
2021/01/24 05:08:59;;;;;;;15.63;8.77;;;3.60;99.90;;;;;;4976741;29;20471;-51
2021/01/24 05:11:26;;;;;;;20.00;7.73;;;3.50;99.90;;;;;;4976831;29;20444;-46
2021/01/24 05:13:53;;;;;;;14.93;7.10;;;3.50;99.90;;;;;;4977916;29;20507;-52
2021/01/24 05:16:23;;;;;;;14.47;7.60;;;3.60;99.90;;;;;;4977746;29;20503;-53
2021/01/24 05:18:57;;;;;;;20.67;8.77;;;3.50;99.90;;;;;;4976803;29;20479;-48
2021/01/24 05:21:26;;;;;;;16.97;8.53;;;3.50;99.90;;;;;;4977268;29;20483;-47
2021/01/24 05:23:55;;;;;;;16.20;9.23;;;3.50;99.90;;;;;;4976951;29;20452;-46
2021/01/24 05:26:21;;;;;;;16.00;8.57;;;3.50;99.90;;;;;;4976450;29;20483;-51
2021/01/24 05:28:48;;;;;;;14.47;8.50;;;3.50;99.90;;;;;;4976893;29;20464;-50
2021/01/24 05:31:15;;;;;;;15.57;8.70;;;3.50;99.90;;;;;;4977060;29;20501;-51
2021/01/24 05:33:49;;;;;;;13.87;7.13;;;3.40;99.90;;;;;;4977488;29;20507;-49
2021/01/24 05:36:16;;;;;;;14.53;8.23;;;3.40;99.90;;;;;;4981302;29;20442;-48
2021/01/24 05:38:42;;;;;;;14.97;7.90;;;3.40;99.90;;;;;;4980609;29;20431;-50
2021/01/24 05:41:11;;;;;;;16.97;8.97;;;3.40;99.90;;;;;;4973305;29;20531;-45
2021/01/24 05:43:39;;;;;;;16.50;8.20;;;3.40;99.90;;;;;;4977581;29;20452;-47
2021/01/24 05:46:06;;;;;;;17.87;9.07;;;3.40;99.90;;;;;;4974180;29;20476;-45
2021/01/24 05:48:34;;;;;;;17.33;8.47;;;3.40;99.90;;;;;;4972701;29;20436;-51
2021/01/24 05:51:02;;;;;;;14.20;7.77;;;3.40;99.90;;;;;;4972809;29;20490;-48
2021/01/24 05:53:36;;;;;;;14.50;6.90;;;3.50;99.90;;;;;;4972412;29;20462;-52
2021/01/24 05:56:08;;;;;;;14.97;7.53;;;3.50;99.90;;;;;;4971629;29;20483;-50
2021/01/24 05:58:40;;;;;;;17.80;8.40;;;3.50;99.90;;;;;;4973044;29;20927;-47
2021/01/24 06:01:08;;;;;;;13.37;7.37;;;3.40;99.90;;;;;;4972106;29;20507;-46
2021/01/24 06:03:36;;;;;;;14.70;6.50;;;3.40;99.90;;;;;;4972213;29;20852;-52
2021/01/24 06:06:04;;;;;;;11.00;6.50;;;3.40;99.90;;;;;;4972333;29;20524;-52
2021/01/24 06:08:30;;;;;;;20.53;9.37;;;3.40;99.90;;;;;;4972493;29;20476;-47
2021/01/24 06:10:58;;;;;;;14.20;6.70;;;3.30;99.90;;;;;;4972686;29;20443;-51
2021/01/24 06:13:26;;;;;;;20.53;8.87;;;3.40;99.90;;;;;;4970521;29;20448;-49
2021/01/24 06:15:54;;;;;;;12.17;7.33;;;3.40;99.90;;;;;;4970135;29;20488;-51
2021/01/24 06:18:27;;;;;;;16.50;8.10;;;3.40;99.90;;;;;;4970825;29;20448;-50
2021/01/24 06:20:59;;;;;;;14.60;7.40;;;3.40;99.90;;;;;;4971242;29;20514;-48
2021/01/24 06:23:33;;;;;;;12.67;6.80;;;3.40;99.90;;;;;;4958750;29;20475;-50
2021/01/24 06:26:03;;;;;;;15.07;7.50;;;3.40;99.90;;;;;;4964804;29;20483;-51
2021/01/24 06:28:34;;;;;;;15.17;7.50;;;3.40;99.90;;;;;;4971622;29;20448;-50
2021/01/24 06:31:01;;;;;;;12.17;6.10;;;3.40;99.90;;;;;;4970784;29;20456;-53
2021/01/24 06:33:27;;;;;;;14.60;6.33;;;3.40;99.90;;;;;;4970276;29;20482;-49
2021/01/24 06:35:58;;;;;;;12.07;6.30;;;3.50;99.90;;;;;;4970337;29;20447;-53
2021/01/24 06:38:31;;;;;;;12.40;6.20;;;3.50;99.90;;;;;;4971773;29;20488;-50
2021/01/24 06:40:58;;;;;;;13.17;6.27;;;3.50;99.90;;;;;;4971538;29;20526;-52
2021/01/24 06:43:41;;;;;;;11.30;7.17;;;3.50;99.90;;;;;;4971182;29;20480;-52
2021/01/24 06:46:09;;;;;;;10.10;5.10;;;3.50;99.90;;;;;;4969942;28;20567;-49
2021/01/24 06:48:43;;;;;;;11.87;5.93;;;3.40;99.90;;;;;;4970548;29;20455;-48
2021/01/24 06:51:32;;;;;;;9.13;5.67;;;3.50;99.90;;;;;;4970724;29;20478;-48
2021/01/24 06:54:00;;;;;;;12.60;6.60;;;3.50;99.90;;;;;;4971196;29;20448;-49
2021/01/24 06:56:39;;;;;;;9.13;5.23;;;3.50;99.90;;;;;;4971864;29;20454;-50
2021/01/24 06:59:06;;;;;;;12.07;6.70;;;3.50;99.90;;;;;;4972771;29;20424;-49
2021/01/24 07:01:33;;;;;;;11.17;5.47;;;3.50;99.90;;;;;;4972306;29;20488;-46
2021/01/24 07:04:39;;;;;;;14.53;6.27;;;3.50;99.90;;;;;;4972058;29;20534;-52
2021/01/24 07:07:31;;;;;;;8.37;4.83;;;3.60;99.90;;;;;;4971398;29;20439;-52
2021/01/24 07:09:59;;;;;;;11.20;6.03;;;3.50;99.90;;;;;;4971626;29;20508;-50
2021/01/24 07:12:41;;;;;;;10.40;5.37;;;3.50;99.90;;;;;;4971119;29;20471;-48
2021/01/24 07:15:10;;;;;;;11.80;6.97;;;3.50;99.90;;;;;;4970666;29;20514;-48
2021/01/24 07:17:37;;;;;;;8.73;5.50;;;3.50;99.90;;;;;;4971273;29;20507;-52
2021/01/24 07:20:06;;;;;;;10.87;6.43;;;3.50;99.90;;;;;;4971063;29;20536;-52
2021/01/24 07:22:34;;;;;;;11.83;5.87;;;3.50;99.90;;;;;;4970383;29;20471;-52
2021/01/24 07:25:01;;;;;;;12.67;5.97;;;3.50;99.90;;;;;;4970369;29;20459;-51
2021/01/24 07:27:29;;;;;;;8.07;5.27;;;3.60;99.90;;;;;;4970131;29;20542;-48
2021/01/24 07:29:56;;;;;;;8.13;5.20;;;3.60;99.90;;;;;;4970435;29;20479;-53
2021/01/24 07:32:25;;;;;;;9.97;6.30;;;3.60;99.90;;;;;;4970887;29;20492;-51
2021/01/24 07:34:53;;;;;;;10.87;7.17;;;3.60;99.90;;;;;;4970193;29;20456;-49
2021/01/24 07:37:20;;;;;;;12.40;6.97;;;3.60;99.90;;;;;;4969481;29;20511;-48
2021/01/24 07:39:48;;;;;;;13.20;5.13;;;3.60;99.90;;;;;;4969843;29;20611;-53
2021/01/24 07:42:16;;;;;;;11.50;5.80;;;3.70;99.90;;;;;;4970413;29;20468;-51
2021/01/24 07:44:44;;;;;;;9.50;5.20;;;3.60;99.90;;;;;;4970177;29;20447;-46
2021/01/24 07:47:11;;;;;;;10.63;5.20;;;3.70;99.90;;;;;;4970246;29;20444;-53
2021/01/24 07:49:38;;;;;;;13.10;6.67;;;3.70;99.90;;;;;;4970360;29;20482;-49
2021/01/24 07:52:05;;;;;;;14.33;7.50;;;3.60;99.90;;;;;;4969797;29;20825;-53
2021/01/24 07:54:33;;;;;;;7.90;5.17;;;3.60;99.90;;;;;;4969189;29;20500;-51
2021/01/24 07:57:00;;;;;;;11.00;6.30;;;3.60;99.90;;;;;;4969136;28;20448;-53
2021/01/24 07:59:28;;;;;;;8.20;5.27;;;3.70;99.90;;;;;;5038117;23;20578;-49
2021/01/24 08:01:55;;;;;;;11.80;7.10;;;3.70;99.90;;;;;;4969099;29;20523;-47
2021/01/24 08:04:23;;;;;;;13.47;7.40;;;3.70;99.90;;;;;;4968894;29;20471;-51
2021/01/24 08:06:50;;;;;;;7.13;5.53;;;3.70;99.90;;;;;;4962067;29;20468;-49
2021/01/24 08:09:17;;;;;;;10.70;7.13;;;3.80;99.90;;;;;;4949705;29;20551;-45
2021/01/24 08:11:44;;;;;;;11.67;5.80;;;3.70;99.90;;;;;;4950614;29;20539;-50
2021/01/24 08:14:11;;;;;;;14.03;6.93;;;3.80;99.90;;;;;;4949938;29;20551;-49
2021/01/24 08:16:41;;;;;;;10.90;7.03;;;3.80;99.90;;;;;;4951175;29;20905;-44
2021/01/24 08:19:09;;;;;;;17.87;8.40;;;3.90;99.90;;;;;;4949343;29;20496;-49
2021/01/24 08:21:37;;;;;;;17.13;8.23;;;3.80;99.90;;;;;;4949570;29;20559;-51
2021/01/24 08:24:05;;;;;;;10.57;5.73;;;3.80;99.90;;;;;;4949513;29;20532;-50
2021/01/24 08:26:32;;;;;;;12.80;6.83;;;3.90;99.90;;;;;;4948753;29;20453;-49
2021/01/24 08:28:59;;;;;;;9.17;5.33;;;3.90;99.90;;;;;;4949578;29;20452;-52
2021/01/24 08:31:27;;;;;;;9.10;6.13;;;4.00;99.90;;;;;;4949716;29;20456;-48
2021/01/24 08:33:56;;;;;;;13.90;6.77;;;4.00;99.90;;;;;;4949114;29;20516;-52
2021/01/24 08:36:25;;;;;;;9.47;5.53;;;4.00;99.90;;;;;;4948331;29;20491;-51
2021/01/24 08:38:56;;;;;;;8.07;5.07;;;4.10;99.90;;;;;;4948149;29;20966;-50
2021/01/24 08:41:28;;;;;;;8.57;5.30;;;4.00;99.90;;;;;;4948814;29;20480;-49
2021/01/24 08:44:06;;;;;;;6.30;4.70;;;4.00;99.90;;;;;;4949251;29;20453;-50
2021/01/24 08:46:39;;;;;;;9.30;4.97;;;4.00;99.90;;;;;;4949348;29;20464;-50
2021/01/24 08:49:09;;;;;;;7.80;5.47;;;4.00;99.90;;;;;;4948563;29;20439;-47
2021/01/24 08:51:40;;;;;;;10.90;6.27;;;4.00;99.90;;;;;;4948704;29;20453;-50
2021/01/24 08:54:18;;;;;;;11.27;5.40;;;4.00;99.90;;;;;;4948897;29;20453;-46
2021/01/24 08:56:45;;;;;;;8.53;6.10;;;4.10;99.90;;;;;;4949816;29;20460;-49
2021/01/24 08:59:19;;;;;;;9.73;4.73;;;4.00;99.90;;;;;;4948647;29;20838;-48
2021/01/24 09:01:46;;;;;;;9.43;5.30;;;4.00;99.90;;;;;;4947958;29;20468;-52
2021/01/24 09:04:30;;;;;;;12.97;6.83;;;4.10;99.90;;;;;;4949021;29;20453;-47
2021/01/24 09:07:05;;;;;;;9.73;4.50;;;4.00;99.90;;;;;;4949185;29;20492;-48
2021/01/24 09:09:32;;;;;;;10.47;5.60;;;4.10;99.90;;;;;;4950107;29;20436;-46
2021/01/24 09:12:00;;;;;;;11.37;4.70;;;4.00;99.90;;;;;;4952873;29;20437;-49
2021/01/24 09:14:27;;;;;;;8.50;4.70;;;4.00;99.90;;;;;;4952743;29;20548;-48
2021/01/24 09:17:04;;;;;;;11.70;6.27;;;4.00;99.90;;;;;;4952456;29;20476;-51
2021/01/24 09:19:32;;;;;;;8.50;4.77;;;4.00;99.90;;;;;;4952327;29;20459;-51
2021/01/24 09:21:58;;;;;;;6.80;4.47;;;4.00;99.90;;;;;;4951348;29;20552;-53
2021/01/24 09:24:24;;;;;;;7.87;4.70;;;4.00;99.90;;;;;;4951946;29;20468;-52
2021/01/24 09:26:51;;;;;;;6.97;4.30;;;4.10;99.90;;;;;;4951630;29;20487;-51
2021/01/24 09:29:18;;;;;;;10.23;4.60;;;4.10;99.90;;;;;;4952411;29;20485;-54
2021/01/24 09:31:45;;;;;;;9.57;4.60;;;4.20;99.90;;;;;;4954280;29;20445;-54
2021/01/24 09:34:12;;;;;;;8.17;5.13;;;4.20;99.90;;;;;;4952665;29;20517;-47
2021/01/24 09:36:39;;;;;;;11.23;5.57;;;4.20;99.90;;;;;;4963608;29;20561;-46
2021/01/24 09:39:07;;;;;;;8.07;4.70;;;4.20;99.90;;;;;;4971391;28;20462;-52
2021/01/24 09:41:34;;;;;;;9.47;4.10;;;4.20;99.90;;;;;;4970846;29;20627;-51
2021/01/24 09:44:01;;;;;;;7.27;4.50;;;4.20;99.90;;;;;;4970553;29;20483;-53
2021/01/24 09:46:27;;;;;;;9.67;5.00;;;4.20;99.90;;;;;;4970800;29;20491;-48
2021/01/24 09:48:53;;;;;;;8.93;4.53;;;4.20;99.90;;;;;;4957377;29;20487;-50
2021/01/24 09:51:20;;;;;;;7.50;4.60;;;4.20;99.90;;;;;;4951141;29;20595;-50
2021/01/24 09:53:51;;;;;;;8.33;4.90;;;4.30;99.90;;;;;;4951277;29;20452;-51
2021/01/24 09:56:18;;;;;;;7.37;5.30;;;4.30;99.90;;;;;;4951405;29;20444;-51
2021/01/24 09:58:44;;;;;;;12.10;6.30;;;4.30;99.90;;;;;;4951666;29;20885;-48
2021/01/24 10:01:11;;;;;;;11.93;6.43;;;4.30;99.90;;;;;;4951193;29;20496;-50
2021/01/24 10:03:38;;;;;;;11.47;6.47;;;4.30;99.90;;;;;;4950470;29;20491;-54
2021/01/24 10:06:05;;;;;;;11.97;7.00;;;4.30;99.90;;;;;;4950782;29;20964;-49
2021/01/24 10:08:32;;;;;;;11.17;7.03;;;4.30;99.90;;;;;;4950412;29;20475;-47
2021/01/24 10:10:59;;;;;;;7.20;4.93;;;4.40;99.90;;;;;;4950599;29;20924;-49
2021/01/24 10:13:26;;;;;;;10.67;5.83;;;4.40;99.90;;;;;;4950477;29;20456;-52
2021/01/24 10:15:52;;;;;;;11.27;6.30;;;4.40;99.90;;;;;;4950457;29;20791;-49
2021/01/24 10:18:20;;;;;;;17.00;6.03;;;4.40;99.90;;;;;;4950588;29;20441;-51
2021/01/24 10:20:46;;;;;;;8.17;5.53;;;4.40;99.90;;;;;;4949119;29;20832;-53
2021/01/24 10:23:13;;;;;;;11.10;6.53;;;4.40;99.90;;;;;;4949866;29;20459;-51
2021/01/24 10:25:42;;;;;;;10.03;5.60;;;4.50;99.90;;;;;;4949647;29;20483;-50
2021/01/24 10:28:09;;;;;;;5.83;4.23;;;4.50;99.90;;;;;;4950609;29;20449;-49
2021/01/24 10:30:35;;;;;;;9.87;6.20;;;4.60;99.90;;;;;;4949836;29;20477;-54
2021/01/24 10:33:02;;;;;;;10.50;5.50;;;4.50;99.90;;;;;;4949972;29;20448;-46
2021/01/24 10:35:28;;;;;;;10.33;5.70;;;4.50;99.90;;;;;;4949218;29;20484;-48
2021/01/24 10:37:55;;;;;;;14.03;6.03;;;4.50;99.90;;;;;;4950269;29;20553;-52
2021/01/24 10:40:21;;;;;;;11.77;6.43;;;4.50;99.90;;;;;;4949534;29;20538;-51
2021/01/24 10:42:48;;;;;;;9.50;4.60;;;4.50;99.90;;;;;;4949175;29;20507;-49
2021/01/24 10:45:16;;;;;;;43.30;22.50;;;4.50;99.90;;;;;;4948914;29;20460;-47
2021/01/24 10:47:42;;;;;;;19.00;6.83;;;4.50;99.90;;;;;;4950332;29;20457;-51
2021/01/24 10:50:10;;;;;;;7.60;4.70;;;4.50;99.90;;;;;;4950756;29;20457;-45
2021/01/24 10:52:45;;;;;;;6.40;3.93;;;4.60;99.90;;;;;;4955753;29;20537;-47
2021/01/24 10:55:12;;;;;;;8.40;5.53;;;4.50;99.90;;;;;;4968182;29;20446;-49
2021/01/24 10:57:39;;;;;;;10.30;5.20;;;4.50;99.90;;;;;;4968811;28;20530;-51
2021/01/24 11:00:07;;;;;;;7.67;4.77;;;4.60;99.90;;;;;;4967440;28;20479;-53
2021/01/24 11:02:35;;;;;;;12.67;5.40;;;4.60;99.90;;;;;;4967695;29;20569;-49
2021/01/24 11:05:02;;;;;;;9.30;5.80;;;4.60;99.90;;;;;;4964031;29;20472;-49
2021/01/24 11:07:28;;;;;;;7.33;5.40;;;4.60;99.90;;;;;;4948970;29;20421;-48
2021/01/24 11:09:57;;;;;;;9.27;5.63;;;4.60;99.90;;;;;;4949860;29;20472;-46
2021/01/24 11:12:23;;;;;;;9.70;5.70;;;4.50;99.90;;;;;;4950013;29;20447;-46
2021/01/24 11:14:50;;;;;;;11.10;6.77;;;4.50;99.90;;;;;;4954482;29;20512;-50
2021/01/24 11:17:16;;;;;;;12.80;6.67;;;4.50;99.90;;;;;;4968288;29;20490;-51
2021/01/24 11:19:44;;;;;;;11.60;7.67;;;4.50;99.90;;;;;;4967838;29;20479;-48
2021/01/24 11:22:11;;;;;;;9.20;5.60;;;4.50;99.90;;;;;;4966989;29;20562;-54
2021/01/24 11:24:37;;;;;;;11.30;6.70;;;4.50;99.90;;;;;;4967962;29;20451;-51
2021/01/24 11:27:05;;;;;;;13.53;7.90;;;4.50;99.90;;;;;;4968022;29;20448;-50
2021/01/24 11:29:32;;;;;;;11.37;7.37;;;4.50;99.90;;;;;;4967419;29;20448;-50
2021/01/24 11:31:59;;;;;;;11.70;7.13;;;4.50;99.90;;;;;;4967119;28;20459;-52
2021/01/24 11:34:25;;;;;;;7.73;6.20;;;4.50;99.90;;;;;;4966828;29;20483;-50
2021/01/24 11:36:53;;;;;;;10.03;5.93;;;4.50;99.90;;;;;;4967116;29;20508;-52
2021/01/24 11:39:19;;;;;;;8.77;6.20;;;4.50;99.90;;;;;;4967172;29;20507;-53
2021/01/24 11:41:46;;;;;;;9.03;6.27;;;4.50;99.90;;;;;;4964179;29;20523;-48
2021/01/24 11:44:12;;;;;;;9.20;6.27;;;4.50;99.90;;;;;;4948095;29;20457;-49
2021/01/24 11:46:39;;;;;;;12.20;7.00;;;4.40;99.90;;;;;;4948747;29;20480;-51
2021/01/24 11:49:06;;;;;;;9.30;7.23;;;4.40;99.90;;;;;;4948544;29;20452;-49
2021/01/24 11:51:32;;;;;;;15.00;8.43;;;4.40;99.90;;;;;;4955986;29;20439;-47
2021/01/24 11:53:59;;;;;;;11.30;8.30;;;4.40;99.90;;;;;;4968094;29;20535;-51
2021/01/24 11:56:26;;;;;;;18.60;9.07;;;4.40;99.90;;;;;;4967401;29;20459;-50
2021/01/24 11:58:52;;;;;;;11.73;7.70;;;4.40;99.90;;;;;;4967484;29;20467;-50
2021/01/24 12:01:29;;;;;;;12.13;7.40;;;4.40;99.90;;;;;;4967441;29;20507;-49
2021/01/24 12:03:55;;;;;;;8.60;6.40;;;4.40;99.90;;;;;;4967229;29;20865;-52
2021/01/24 12:06:22;;;;;;;10.00;6.60;;;4.30;99.90;;;;;;4967684;29;20440;-49
2021/01/24 12:08:48;;;;;;;9.90;6.60;;;4.30;99.90;;;;;;4967324;29;20490;-53
2021/01/24 12:11:15;;;;;;;9.20;5.17;;;4.40;99.90;;;;;;4967741;29;20451;-47
2021/01/24 12:13:42;;;;;;;8.27;5.57;;;4.30;99.90;;;;;;4968610;29;20440;-48
2021/01/24 12:16:08;;;;;;;7.97;5.13;;;4.30;99.90;;;;;;4967903;29;20472;-51
2021/01/24 12:18:35;;;;;;;9.97;6.13;;;4.30;99.90;;;;;;4966658;29;20475;-53
2021/01/24 12:21:01;;;;;;;9.40;5.60;;;4.40;99.90;;;;;;4968263;29;20507;-51
2021/01/24 12:23:27;;;;;;;11.47;6.37;;;4.40;99.90;;;;;;4967700;29;20533;-53
2021/01/24 12:25:54;;;;;;;12.83;5.77;;;4.40;99.90;;;;;;4968012;29;20475;-51
2021/01/24 12:28:21;;;;;;;8.13;4.87;;;4.40;99.90;;;;;;4967502;29;20462;-53
2021/01/24 12:30:50;;;;;;;9.07;5.40;;;4.40;99.90;;;;;;4968205;29;20467;-51
2021/01/24 12:33:16;;;;;;;10.20;5.50;;;4.40;99.90;;;;;;4967556;29;20510;-48
2021/01/24 12:35:43;;;;;;;10.73;6.13;;;4.40;99.90;;;;;;4967842;29;20549;-52
2021/01/24 12:38:09;;;;;;;10.40;6.73;;;4.30;99.90;;;;;;4967658;29;20467;-48
2021/01/24 12:40:36;;;;;;;9.20;4.80;;;4.40;99.90;;;;;;4968181;29;20436;-51
2021/01/24 12:43:02;;;;;;;10.93;5.93;;;4.40;99.90;;;;;;4967672;29;20448;-51
2021/01/24 12:45:30;;;;;;;16.10;10.67;;;4.40;99.90;;;;;;4965549;28;20539;-50
2021/01/24 12:47:56;;;;;;;10.53;6.73;;;4.50;99.90;;;;;;4966666;29;20463;-52
2021/01/24 12:50:23;;;;;;;39.17;20.97;;;4.50;99.90;;;;;;4967095;29;20468;-49
2021/01/24 12:52:50;;;;;;;11.93;5.47;;;4.50;99.90;;;;;;4966535;29;20487;-53
2021/01/24 12:55:16;;;;;;;7.93;4.50;;;4.50;99.90;;;;;;4966012;29;20455;-53